SBRB/RBR METAR and TAF weather

Enter ICAO airport designator
Station Type Date Time Source
SBRB METAR 2021/05/13 06:00 UTC NOAA

SBRB 130600Z 14004KT 9999 BKN008 SCT020 22/22 Q1015


Station Type Date Time Source
SBRB Decoded METAR 2021/05/13 06:00 UTC NOAA

Rio Branco, Brazil (SBRB) 10-00S 067-48W 143M
May 13, 2021 - 02:00 AM EDT / 2021.05.13 0600 UTC
Wind: from the SE (140 degrees) at 5 MPH (4 KT):0
Visibility: greater than 7 mile(s):0
Sky conditions: mostly cloudy
Temperature: 71 F (22 C)
Dew Point: 71 F (22 C)
Relative Humidity: 100%
Pressure (altimeter): 29.97 in. Hg (1015 hPa)
ob: SBRB 130600Z 14004KT 9999 BKN008 SCT020 22/22 Q1015
cycle: 6

Station Type Date Time Source
SBRB TAF 2021/05/13 06:42 UTC NOAA

TAF SBRB 130240Z 1306/1318 15003KT CAVOK TN21/1308Z TX29/1318Z
BECMG 1312/1314 09005KT 9999 SCT020
RMK PGZ

Example: see airport list